Time;durP1;ratioP1;P1;durP2;ratioP2;P2;SDS_P1;SDS_P2;PMS_P1;PMS_P2;Temp;Humidity;BMP_temperature;BMP_pressure;BME280_temperature;BME280_humidity;BME280_pressure;Samples;Min_cycle;Max_cycle;Signal;HPM_P1;HPM_P2
2021/07/13 00:00:36;;;;;;;2.75;1.90;;;19.20;81.80;;;;;;5095423;28;20035;-78
2021/07/13 00:03:04;;;;;;;2.33;1.50;;;19.30;82.00;;;;;;5095352;28;20016;-77
2021/07/13 00:05:32;;;;;;;1.77;1.00;;;19.30;81.40;;;;;;5095300;28;20043;-76
2021/07/13 00:07:58;;;;;;;2.00;0.90;;;19.20;79.70;;;;;;5095488;28;20019;-74
2021/07/13 00:10:27;;;;;;;2.67;1.25;;;19.10;80.10;;;;;;5113570;28;20082;-77
2021/07/13 00:12:53;;;;;;;5.70;1.17;;;18.90;79.80;;;;;;5095191;28;20026;-74
2021/07/13 00:15:33;;;;;;;1.13;0.68;;;19.00;79.60;;;;;;5113607;28;20039;-74
2021/07/13 00:18:00;;;;;;;2.65;1.15;;;19.00;79.40;;;;;;5113573;28;20022;-77
2021/07/13 00:20:26;;;;;;;4.05;1.48;;;18.90;79.50;;;;;;5095064;28;20048;-74
2021/07/13 00:22:52;;;;;;;2.40;1.00;;;18.80;80.40;;;;;;5113484;28;20095;-74
2021/07/13 00:25:18;;;;;;;3.03;1.23;;;18.70;82.00;;;;;;5113349;28;20050;-73
2021/07/13 00:27:44;;;;;;;4.93;1.00;;;18.70;81.40;;;;;;5113381;28;20038;-74
2021/07/13 00:30:13;;;;;;;2.15;1.13;;;18.80;81.50;;;;;;5113456;28;20391;-73
2021/07/13 00:32:39;;;;;;;2.17;1.15;;;18.80;82.70;;;;;;5113351;28;20020;-74
2021/07/13 00:35:06;;;;;;;2.00;1.25;;;18.80;81.50;;;;;;5113390;28;20032;-74
2021/07/13 00:37:32;;;;;;;2.88;1.40;;;18.90;82.00;;;;;;5113305;28;20016;-74
2021/07/13 00:39:57;;;;;;;2.53;1.42;;;18.90;82.20;;;;;;5095164;28;20533;-74
2021/07/13 00:42:23;;;;;;;6.50;1.45;;;18.80;82.10;;;;;;5094934;28;20072;-74
2021/07/13 00:44:49;;;;;;;4.03;1.38;;;18.70;81.90;;;;;;5113227;28;20483;-74
2021/07/13 00:47:22;;;;;;;3.65;1.50;;;18.70;81.90;;;;;;5115522;28;20112;-74
2021/07/13 00:49:48;;;;;;;2.22;1.27;;;18.50;82.90;;;;;;5117109;28;20019;-74
2021/07/13 00:52:15;;;;;;;2.25;1.27;;;18.50;83.40;;;;;;5117053;28;20027;-74
2021/07/13 00:54:47;;;;;;;2.85;1.75;;;18.60;83.70;;;;;;5117256;28;20036;-74
2021/07/13 00:57:14;;;;;;;2.42;1.70;;;18.60;83.10;;;;;;5117171;28;20020;-74
2021/07/13 00:59:40;;;;;;;2.80;1.60;;;18.80;83.70;;;;;;5117131;28;20055;-74
2021/07/13 01:02:08;;;;;;;5.25;1.60;;;18.70;84.20;;;;;;5117126;28;20023;-73
2021/07/13 01:04:36;;;;;;;4.03;1.88;;;18.80;83.20;;;;;;5098534;28;20043;-74
2021/07/13 01:07:07;;;;;;;2.90;1.70;;;18.70;83.30;;;;;;5116844;28;20062;-74
2021/07/13 01:09:41;;;;;;;7.40;1.67;;;18.70;84.40;;;;;;5098720;28;20506;-74
2021/07/13 01:12:18;;;;;;;6.93;1.90;;;18.50;85.40;;;;;;5116924;28;20027;-74
2021/07/13 01:14:52;;;;;;;4.97;1.80;;;18.20;86.90;;;;;;5116864;28;20024;-74
2021/07/13 01:17:32;;;;;;;5.22;1.90;;;17.90;88.60;;;;;;5116881;28;20031;-74
2021/07/13 01:20:26;;;;;;;5.45;2.13;;;17.70;89.30;;;;;;5116620;28;20030;-74
2021/07/13 01:23:02;;;;;;;3.30;1.55;;;17.70;90.10;;;;;;5116354;28;20027;-74
2021/07/13 01:25:54;;;;;;;4.53;1.80;;;17.70;89.90;;;;;;5090796;28;20070;-74
2021/07/13 01:28:22;;;;;;;3.92;1.60;;;17.70;90.10;;;;;;5116710;28;20035;-74
2021/07/13 01:30:57;;;;;;;3.65;2.00;;;17.70;91.80;;;;;;5116498;27;20019;-75
2021/07/13 01:33:27;;;;;;;3.73;2.03;;;17.70;90.90;;;;;;5098493;28;20039;-76
2021/07/13 01:35:59;;;;;;;6.25;1.80;;;17.80;90.30;;;;;;5098028;28;20395;-75
2021/07/13 01:38:27;;;;;;;2.75;1.55;;;17.80;90.90;;;;;;5097973;28;20024;-74
2021/07/13 01:41:07;;;;;;;5.82;2.00;;;17.90;90.40;;;;;;5097777;28;20353;-74
2021/07/13 01:43:37;;;;;;;4.78;2.00;;;17.90;89.60;;;;;;5097891;28;20436;-74
2021/07/13 01:46:05;;;;;;;5.30;1.73;;;17.90;89.50;;;;;;5116227;28;20475;-75
2021/07/13 01:48:33;;;;;;;2.72;1.80;;;17.90;89.80;;;;;;5097076;28;20027;-76
2021/07/13 01:50:59;;;;;;;5.70;1.80;;;17.90;90.00;;;;;;5097811;28;20027;-76
2021/07/13 01:53:28;;;;;;;5.00;1.50;;;17.70;90.00;;;;;;5097409;28;20051;-75
2021/07/13 01:55:55;;;;;;;4.28;1.70;;;17.70;90.40;;;;;;5097577;28;20480;-76
2021/07/13 01:58:29;;;;;;;4.15;1.40;;;17.80;90.60;;;;;;5096498;28;20031;-74
2021/07/13 02:01:00;;;;;;;2.13;1.33;;;17.90;90.50;;;;;;5096969;28;20019;-76
2021/07/13 02:03:27;;;;;;;2.15;1.20;;;18.00;89.80;;;;;;5097574;28;20020;-76
2021/07/13 02:05:56;;;;;;;1.98;1.30;;;18.10;89.50;;;;;;5097217;28;20160;-77
2021/07/13 02:08:24;;;;;;;4.57;1.52;;;18.10;89.30;;;;;;5097329;28;20077;-76
2021/07/13 02:10:50;;;;;;;2.85;1.20;;;18.20;89.40;;;;;;5097328;28;20026;-74
2021/07/13 02:13:18;;;;;;;4.25;1.70;;;18.30;89.30;;;;;;5115664;28;20029;-74
2021/07/13 02:15:44;;;;;;;4.63;1.20;;;18.30;88.90;;;;;;5115317;28;20070;-74
2021/07/13 02:18:10;;;;;;;4.13;1.67;;;18.30;89.00;;;;;;5097389;28;20023;-74
2021/07/13 02:20:36;;;;;;;3.05;1.55;;;18.30;88.80;;;;;;5097048;28;20047;-76
2021/07/13 02:23:03;;;;;;;1.85;1.17;;;18.20;88.80;;;;;;5096964;28;20427;-75
2021/07/13 02:25:29;;;;;;;2.70;1.48;;;18.20;88.80;;;;;;5096848;28;20031;-74
2021/07/13 02:28:00;;;;;;;2.10;1.20;;;18.20;89.70;;;;;;5097310;28;20106;-75
2021/07/13 02:30:28;;;;;;;4.35;1.63;;;18.20;89.00;;;;;;5089526;28;20472;-73
2021/07/13 02:33:00;;;;;;;3.85;1.40;;;18.30;89.90;;;;;;5115385;28;20027;-74
2021/07/13 02:35:51;;;;;;;2.65;1.13;;;18.30;89.00;;;;;;5096554;28;20055;-74
2021/07/13 02:38:19;;;;;;;2.80;1.20;;;18.40;88.50;;;;;;5115168;28;20024;-74
2021/07/13 02:40:47;;;;;;;2.78;1.40;;;18.40;88.30;;;;;;5115154;28;20044;-74
2021/07/13 02:43:13;;;;;;;2.40;1.23;;;18.40;88.10;;;;;;5096377;28;20016;-74
2021/07/13 02:45:40;;;;;;;6.60;1.60;;;18.40;87.80;;;;;;5096670;28;20051;-74
2021/07/13 02:48:07;;;;;;;4.22;1.42;;;18.40;87.50;;;;;;5096659;28;20027;-73
2021/07/13 02:50:33;;;;;;;3.00;1.40;;;18.30;87.00;;;;;;5096464;28;20499;-74
2021/07/13 02:52:59;;;;;;;3.58;1.20;;;18.30;87.40;;;;;;5096481;28;20039;-74
2021/07/13 02:55:26;;;;;;;2.75;1.45;;;18.30;87.60;;;;;;5096486;28;20020;-74
2021/07/13 02:57:53;;;;;;;1.45;0.95;;;18.20;87.60;;;;;;5096306;28;20100;-74
2021/07/13 03:00:20;;;;;;;5.88;1.38;;;18.30;87.70;;;;;;5096167;28;20022;-74
2021/07/13 03:02:49;;;;;;;1.55;1.10;;;18.20;87.00;;;;;;5114701;28;20038;-74
2021/07/13 03:05:20;;;;;;;4.40;1.33;;;18.20;86.80;;;;;;5114673;28;20065;-74
2021/07/13 03:07:47;;;;;;;4.35;1.35;;;18.00;88.10;;;;;;5114583;28;20496;-74
2021/07/13 03:10:13;;;;;;;2.55;1.30;;;17.90;88.90;;;;;;5096018;28;20057;-73
2021/07/13 03:12:39;;;;;;;4.03;1.25;;;17.80;88.70;;;;;;5096055;28;20052;-74
2021/07/13 03:15:06;;;;;;;2.03;1.02;;;17.80;88.40;;;;;;5096049;28;20475;-74
2021/07/13 03:17:32;;;;;;;1.55;1.08;;;17.80;89.10;;;;;;5095985;28;20032;-74
2021/07/13 03:19:59;;;;;;;1.58;0.80;;;17.80;88.70;;;;;;5114449;28;20077;-74
2021/07/13 03:22:33;;;;;;;3.03;1.45;;;17.70;89.60;;;;;;5095738;28;20019;-75
2021/07/13 03:25:00;;;;;;;2.50;1.25;;;17.80;89.10;;;;;;5114425;28;20024;-74
2021/07/13 03:27:28;;;;;;;2.88;1.60;;;17.90;89.00;;;;;;5095834;28;20072;-74
2021/07/13 03:29:55;;;;;;;3.55;2.00;;;17.80;88.80;;;;;;5095927;28;20059;-74
2021/07/13 03:32:22;;;;;;;2.95;1.77;;;17.80;88.60;;;;;;5095915;28;20023;-76
2021/07/13 03:34:48;;;;;;;2.17;1.50;;;17.80;88.80;;;;;;5096024;28;20388;-76
2021/07/13 03:37:15;;;;;;;3.72;1.50;;;17.90;89.10;;;;;;5095746;28;20076;-75
2021/07/13 03:39:41;;;;;;;3.40;1.48;;;18.00;89.40;;;;;;5113832;28;20023;-74
2021/07/13 03:42:07;;;;;;;1.67;1.45;;;18.00;89.20;;;;;;5095984;28;20157;-74
2021/07/13 03:44:33;;;;;;;2.30;1.33;;;18.10;89.40;;;;;;5113786;28;20016;-75
2021/07/13 03:46:59;;;;;;;2.05;1.55;;;18.10;89.10;;;;;;5095396;28;20050;-74
2021/07/13 03:49:26;;;;;;;6.53;2.10;;;18.10;89.60;;;;;;5113738;28;20428;-74
2021/07/13 03:51:51;;;;;;;1.45;0.88;;;17.80;89.90;;;;;;5095457;28;20410;-75
2021/07/13 03:54:20;;;;;;;3.30;1.60;;;17.60;90.40;;;;;;5113618;28;20123;-75
2021/07/13 03:56:46;;;;;;;1.45;1.25;;;17.70;90.40;;;;;;5095294;28;20357;-74
2021/07/13 03:59:12;;;;;;;1.77;1.40;;;17.50;91.10;;;;;;5113622;28;20020;-75
2021/07/13 04:01:39;;;;;;;1.73;1.50;;;17.40;91.60;;;;;;5095411;28;20020;-74
2021/07/13 04:04:05;;;;;;;1.80;1.25;;;17.40;91.20;;;;;;5113400;28;20032;-74
2021/07/13 04:06:32;;;;;;;1.48;0.90;;;17.30;90.80;;;;;;5113518;28;20032;-74
2021/07/13 04:08:59;;;;;;;2.75;1.20;;;17.30;91.70;;;;;;5095239;28;20024;-74
2021/07/13 04:11:24;;;;;;;1.80;1.08;;;17.30;91.50;;;;;;5113445;28;20379;-74
2021/07/13 04:13:50;;;;;;;2.65;1.42;;;17.40;91.20;;;;;;5113482;28;20019;-74
2021/07/13 04:16:15;;;;;;;5.80;1.20;;;17.40;91.60;;;;;;5113470;28;20032;-74
2021/07/13 04:18:42;;;;;;;2.70;1.33;;;17.40;90.90;;;;;;5113504;28;20039;-74
2021/07/13 04:21:08;;;;;;;3.33;1.40;;;17.40;91.90;;;;;;5112871;28;20019;-74
2021/07/13 04:23:34;;;;;;;3.00;1.20;;;17.50;91.50;;;;;;5095197;28;20389;-73
2021/07/13 04:26:00;;;;;;;2.70;1.23;;;17.40;91.10;;;;;;5114706;28;20024;-76
2021/07/13 04:28:26;;;;;;;3.05;1.30;;;17.50;91.10;;;;;;5117571;28;20028;-74
2021/07/13 04:30:53;;;;;;;2.75;1.40;;;17.60;90.80;;;;;;5119753;28;20042;-77
2021/07/13 04:33:19;;;;;;;5.32;1.63;;;17.60;90.50;;;;;;5117332;28;20024;-73
2021/07/13 04:35:45;;;;;;;2.47;1.10;;;17.70;90.20;;;;;;5078440;28;20038;-73
2021/07/13 04:38:10;;;;;;;2.40;1.10;;;17.80;89.50;;;;;;5113387;28;20035;-72
2021/07/13 04:40:36;;;;;;;4.22;1.20;;;17.80;88.80;;;;;;5113101;28;20076;-76
2021/07/13 04:43:02;;;;;;;3.03;1.17;;;17.90;88.70;;;;;;5094804;28;20031;-75
2021/07/13 04:45:28;;;;;;;2.45;1.15;;;17.90;88.70;;;;;;5113284;28;20023;-76
2021/07/13 04:47:53;;;;;;;2.72;1.42;;;17.90;88.50;;;;;;5095019;28;20356;-72
2021/07/13 04:50:19;;;;;;;5.35;1.85;;;17.80;89.30;;;;;;5094610;28;20032;-72
2021/07/13 04:52:45;;;;;;;2.42;1.27;;;17.80;90.70;;;;;;5094827;28;20611;-72
2021/07/13 04:55:12;;;;;;;3.20;0.95;;;17.80;90.10;;;;;;5094954;28;20023;-73
2021/07/13 04:57:38;;;;;;;2.83;1.45;;;17.80;89.50;;;;;;5094704;28;20027;-76
2021/07/13 05:00:06;;;;;;;2.55;1.60;;;17.80;89.40;;;;;;5094680;28;20575;-73
2021/07/13 05:02:31;;;;;;;2.65;1.55;;;17.70;89.40;;;;;;5093893;28;20038;-74
2021/07/13 05:04:57;;;;;;;3.92;1.85;;;17.60;90.80;;;;;;5077826;28;20530;-75
2021/07/13 05:07:23;;;;;;;1.90;1.67;;;17.40;91.00;;;;;;5077792;28;20547;-74
2021/07/13 05:09:49;;;;;;;5.38;2.58;;;17.30;92.90;;;;;;5094392;28;20032;-74
2021/07/13 05:12:14;;;;;;;6.05;2.10;;;17.30;93.70;;;;;;5094528;28;20032;-75
2021/07/13 05:14:41;;;;;;;6.25;1.67;;;17.10;94.40;;;;;;5094629;28;20023;-74
2021/07/13 05:17:06;;;;;;;6.32;1.55;;;17.00;94.60;;;;;;5112741;28;20570;-75
2021/07/13 05:19:33;;;;;;;2.88;1.40;;;17.00;95.10;;;;;;5112572;28;20047;-73
2021/07/13 05:22:05;;;;;;;2.85;1.05;;;17.00;94.50;;;;;;5112508;28;20024;-73
2021/07/13 05:24:31;;;;;;;4.00;1.13;;;17.10;93.50;;;;;;5112265;28;20371;-73
2021/07/13 05:26:56;;;;;;;3.90;2.03;;;17.30;93.60;;;;;;5093977;28;20024;-74
2021/07/13 05:29:22;;;;;;;2.38;1.15;;;17.50;93.40;;;;;;5094079;28;20019;-74
2021/07/13 05:31:48;;;;;;;3.35;1.27;;;17.60;92.70;;;;;;5093684;28;20020;-74
2021/07/13 05:34:14;;;;;;;3.00;1.15;;;17.40;91.90;;;;;;5096542;28;20023;-73
2021/07/13 05:36:39;;;;;;;2.97;1.20;;;17.40;92.90;;;;;;5097573;28;20040;-73
2021/07/13 05:39:07;;;;;;;2.30;1.20;;;17.40;92.40;;;;;;5116222;28;20032;-73
2021/07/13 05:41:33;;;;;;;2.75;1.55;;;17.50;92.60;;;;;;5116145;28;20488;-73
2021/07/13 05:43:59;;;;;;;4.38;1.27;;;17.70;92.70;;;;;;5115918;28;20055;-73
2021/07/13 05:46:25;;;;;;;4.88;1.30;;;17.80;92.50;;;;;;5115948;27;20038;-73
2021/07/13 05:48:51;;;;;;;3.13;1.35;;;17.70;92.40;;;;;;5097188;28;20019;-72
2021/07/13 05:51:17;;;;;;;1.27;0.80;;;17.80;92.10;;;;;;5097757;28;20028;-72
2021/07/13 05:53:43;;;;;;;3.70;1.80;;;17.80;92.10;;;;;;5097306;28;20139;-72
2021/07/13 05:56:10;;;;;;;3.95;1.30;;;17.80;91.80;;;;;;5097712;28;20080;-72
2021/07/13 05:58:35;;;;;;;2.85;1.40;;;17.80;91.60;;;;;;5115531;28;20408;-73
2021/07/13 06:01:02;;;;;;;4.35;1.52;;;17.80;91.70;;;;;;5097365;28;20042;-73
2021/07/13 06:03:27;;;;;;;1.73;1.17;;;17.70;92.10;;;;;;5096957;28;20456;-72
2021/07/13 06:05:53;;;;;;;3.15;1.20;;;17.50;92.40;;;;;;5097323;28;20114;-72
2021/07/13 06:08:18;;;;;;;5.47;1.20;;;17.50;92.90;;;;;;5115698;28;20027;-73
2021/07/13 06:10:44;;;;;;;2.33;1.23;;;17.50;93.10;;;;;;5097343;28;20161;-72
2021/07/13 06:13:10;;;;;;;2.13;1.45;;;17.50;92.70;;;;;;5096924;28;20080;-73
2021/07/13 06:15:35;;;;;;;1.58;0.75;;;17.60;92.50;;;;;;5097095;28;20020;-73
2021/07/13 06:18:01;;;;;;;2.30;0.90;;;17.70;92.40;;;;;;5096696;28;20035;-73
2021/07/13 06:20:27;;;;;;;1.45;0.80;;;17.80;92.00;;;;;;5096678;28;20160;-73
2021/07/13 06:22:52;;;;;;;2.50;1.15;;;17.80;91.50;;;;;;5096955;28;20054;-73
2021/07/13 06:25:18;;;;;;;3.03;1.20;;;17.80;92.10;;;;;;5086405;28;20032;-74
2021/07/13 06:27:44;;;;;;;1.35;0.80;;;17.70;91.60;;;;;;5093621;28;20070;-75
2021/07/13 06:30:12;;;;;;;2.58;1.15;;;17.80;90.90;;;;;;5076302;28;20486;-75
2021/07/13 06:32:37;;;;;;;3.05;1.00;;;17.80;90.60;;;;;;5076468;28;20124;-74
2021/07/13 06:35:03;;;;;;;1.35;0.80;;;17.80;90.10;;;;;;5076495;28;20056;-75
2021/07/13 06:37:29;;;;;;;1.23;0.90;;;17.80;90.10;;;;;;5093946;28;20044;-75
2021/07/13 06:39:54;;;;;;;1.40;1.17;;;17.90;89.60;;;;;;5076011;28;20017;-74
2021/07/13 06:42:20;;;;;;;1.15;0.75;;;17.80;89.90;;;;;;5076016;28;20020;-74
2021/07/13 06:44:45;;;;;;;4.47;0.82;;;17.80;89.80;;;;;;5075523;28;20362;-74
2021/07/13 06:47:11;;;;;;;1.95;0.93;;;17.80;89.70;;;;;;5075883;28;20135;-75
2021/07/13 06:49:36;;;;;;;1.15;1.00;;;17.80;89.20;;;;;;5075996;28;20032;-75
2021/07/13 06:52:02;;;;;;;2.15;0.90;;;17.80;89.50;;;;;;5093793;28;20020;-74
2021/07/13 06:54:28;;;;;;;1.83;0.85;;;17.90;88.70;;;;;;5074904;28;20036;-73
2021/07/13 06:56:54;;;;;;;2.55;0.80;;;17.90;89.20;;;;;;5076007;28;20077;-73
2021/07/13 06:59:21;;;;;;;3.97;0.80;;;17.90;89.10;;;;;;5059385;28;20044;-73
2021/07/13 07:01:47;;;;;;;1.80;1.00;;;17.80;88.80;;;;;;5075852;28;20081;-73
2021/07/13 07:04:13;;;;;;;1.08;1.00;;;17.80;89.10;;;;;;5076256;28;20464;-74
2021/07/13 07:06:38;;;;;;;3.40;1.10;;;17.80;89.30;;;;;;5075744;28;20032;-73
2021/07/13 07:09:04;;;;;;;2.05;0.80;;;17.70;90.60;;;;;;5075759;28;20062;-73
2021/07/13 07:11:29;;;;;;;0.43;0.40;;;17.60;89.80;;;;;;5075809;28;20476;-73
2021/07/13 07:13:55;;;;;;;1.00;0.38;;;17.40;89.80;;;;;;5075836;28;20035;-73
2021/07/13 07:16:20;;;;;;;0.73;0.30;;;17.00;91.40;;;;;;5075366;28;20499;-74
2021/07/13 07:18:46;;;;;;;0.70;0.30;;;16.90;91.10;;;;;;5075103;28;20380;-75
2021/07/13 07:21:12;;;;;;;0.55;0.25;;;16.80;90.60;;;;;;5075319;28;20024;-72
2021/07/13 07:23:39;;;;;;;0.30;0.10;;;16.80;90.80;;;;;;5075588;28;20032;-75
2021/07/13 07:26:05;;;;;;;0.00;0.00;;;16.90;91.50;;;;;;5093622;28;20120;-76
2021/07/13 07:28:31;;;;;;;0.28;0.10;;;17.00;91.60;;;;;;5075281;28;20068;-74
2021/07/13 07:30:56;;;;;;;0.10;0.05;;;17.10;90.20;;;;;;5075396;28;20040;-74
2021/07/13 07:33:22;;;;;;;3.40;0.47;;;17.10;89.20;;;;;;5075496;28;20028;-76
2021/07/13 07:35:47;;;;;;;1.48;0.17;;;17.30;90.10;;;;;;5074906;28;20024;-76
2021/07/13 07:38:13;;;;;;;1.10;0.20;;;17.40;89.50;;;;;;5075404;28;20028;-76
2021/07/13 07:40:40;;;;;;;2.70;0.30;;;17.30;86.50;;;;;;5074973;28;20032;-76
2021/07/13 07:43:06;;;;;;;0.40;0.00;;;17.10;88.00;;;;;;5075349;28;20127;-77
2021/07/13 07:45:31;;;;;;;1.70;0.00;;;17.20;87.40;;;;;;5075161;28;20559;-77
2021/07/13 07:47:57;;;;;;;0.10;0.10;;;17.00;87.90;;;;;;5075406;28;20025;-76
2021/07/13 07:50:24;;;;;;;3.03;0.30;;;17.00;88.30;;;;;;5075218;28;20073;-76
2021/07/13 07:52:51;;;;;;;1.08;0.00;;;17.00;87.00;;;;;;5074721;28;20048;-76
2021/07/13 07:55:19;;;;;;;0.43;0.00;;;16.70;87.90;;;;;;5074726;28;20024;-77
2021/07/13 07:57:45;;;;;;;0.65;0.25;;;16.50;89.50;;;;;;5074228;28;20036;-76
2021/07/13 08:00:12;;;;;;;0.00;0.00;;;16.50;89.70;;;;;;5074865;28;20503;-75
2021/07/13 08:02:39;;;;;;;0.38;0.05;;;16.60;87.70;;;;;;5075066;28;20066;-76
2021/07/13 08:05:05;;;;;;;0.40;0.00;;;16.70;87.70;;;;;;5074953;28;20024;-76
2021/07/13 08:07:31;;;;;;;1.05;0.22;;;16.60;87.70;;;;;;5074708;28;20024;-75
2021/07/13 08:09:57;;;;;;;2.28;0.30;;;16.30;88.10;;;;;;5074865;28;20022;-76
2021/07/13 08:12:23;;;;;;;2.05;0.40;;;16.30;88.00;;;;;;5074783;28;20081;-76
2021/07/13 08:14:49;;;;;;;1.27;0.20;;;16.20;88.60;;;;;;5074692;28;20408;-76
2021/07/13 08:17:14;;;;;;;0.20;0.10;;;16.10;88.70;;;;;;5074502;28;20038;-76
2021/07/13 08:19:40;;;;;;;0.00;0.00;;;16.00;89.10;;;;;;5074829;28;20020;-76
2021/07/13 08:22:07;;;;;;;0.00;0.00;;;16.00;88.20;;;;;;5074716;28;20030;-76
2021/07/13 08:24:34;;;;;;;0.47;0.30;;;15.90;88.00;;;;;;5074595;28;20491;-76
2021/07/13 08:26:59;;;;;;;0.60;0.28;;;15.80;88.80;;;;;;5074659;28;20024;-76
2021/07/13 08:29:25;;;;;;;3.13;0.22;;;15.90;89.30;;;;;;5092744;28;20073;-77
2021/07/13 08:31:56;;;;;;;0.88;0.40;;;15.70;89.10;;;;;;5057950;28;20032;-76
2021/07/13 08:34:22;;;;;;;1.80;0.55;;;15.60;89.80;;;;;;5066411;28;20111;-77
2021/07/13 08:36:49;;;;;;;1.30;0.20;;;15.60;90.60;;;;;;5074107;28;20388;-76
2021/07/13 08:39:15;;;;;;;2.08;0.10;;;15.50;91.00;;;;;;5074714;28;20024;-76
2021/07/13 08:41:43;;;;;;;0.57;0.10;;;15.40;91.20;;;;;;5073969;28;20373;-76
2021/07/13 08:44:09;;;;;;;2.47;0.20;;;15.40;90.70;;;;;;5074280;28;20028;-76
2021/07/13 08:46:37;;;;;;;1.45;0.20;;;15.20;90.50;;;;;;5073961;28;20388;-76
2021/07/13 08:49:04;;;;;;;1.58;0.15;;;15.10;91.40;;;;;;5074833;28;20024;-76
2021/07/13 08:51:29;;;;;;;0.10;0.10;;;15.00;92.00;;;;;;5074129;28;20024;-76
2021/07/13 08:53:55;;;;;;;0.30;0.10;;;15.10;91.20;;;;;;5074182;28;20508;-76
2021/07/13 08:56:20;;;;;;;0.10;0.10;;;14.90;90.40;;;;;;5074504;28;20590;-77
2021/07/13 08:58:46;;;;;;;0.00;0.00;;;14.90;90.00;;;;;;5074330;28;20709;-76
2021/07/13 09:01:12;;;;;;;1.20;0.03;;;14.80;90.30;;;;;;5052374;22;20207;-76
2021/07/13 09:03:55;;;;;;;3.45;0.10;;;14.80;90.70;;;;;;5028809;28;20575;-76
2021/07/13 09:06:22;;;;;;;0.10;0.03;;;14.90;91.30;;;;;;5034412;28;20115;-77
2021/07/13 09:08:48;;;;;;;1.02;0.10;;;15.00;92.10;;;;;;5037136;28;20029;-78
2021/07/13 09:11:19;;;;;;;1.20;0.10;;;15.00;90.70;;;;;;5021792;28;20035;-76
2021/07/13 09:13:50;;;;;;;1.38;0.50;;;15.00;88.80;;;;;;5037409;28;20136;-76
2021/07/13 09:16:29;;;;;;;0.95;0.22;;;15.00;89.40;;;;;;5038103;28;20523;-76
2021/07/13 09:18:57;;;;;;;2.40;0.30;;;15.10;89.30;;;;;;5038110;28;20469;-76
2021/07/13 09:21:34;;;;;;;1.35;0.43;;;15.10;88.80;;;;;;5037451;28;20037;-76
2021/07/13 09:24:09;;;;;;;1.70;0.52;;;15.20;89.60;;;;;;5041187;28;20408;-76
2021/07/13 09:26:39;;;;;;;4.28;0.60;;;15.30;89.80;;;;;;5038317;28;20025;-76
2021/07/13 09:29:05;;;;;;;2.58;0.60;;;15.20;90.80;;;;;;5037816;28;20021;-76
2021/07/13 09:31:31;;;;;;;2.58;0.57;;;15.30;90.20;;;;;;5037597;28;20538;-77
2021/07/13 09:33:56;;;;;;;2.30;0.28;;;15.40;91.20;;;;;;5037749;28;20029;-77
2021/07/13 09:36:22;;;;;;;1.88;0.30;;;15.40;89.10;;;;;;5055391;28;20045;-77
2021/07/13 09:38:53;;;;;;;1.70;0.10;;;15.40;88.60;;;;;;5037642;28;20422;-77
2021/07/13 09:41:21;;;;;;;1.33;0.40;;;15.60;88.20;;;;;;5037480;28;20025;-75
2021/07/13 09:43:59;;;;;;;0.70;0.20;;;15.90;88.70;;;;;;5037453;28;20028;-76
2021/07/13 09:46:28;;;;;;;2.85;0.20;;;16.10;88.00;;;;;;5037511;28;20025;-76
2021/07/13 09:49:15;;;;;;;6.43;0.60;;;16.00;84.80;;;;;;5037473;28;20110;-76
2021/07/13 09:52:05;;;;;;;1.63;0.40;;;15.90;85.20;;;;;;5037281;28;20583;-76
2021/07/13 09:54:39;;;;;;;0.93;0.30;;;16.00;83.50;;;;;;5037352;28;20025;-76
2021/07/13 09:57:07;;;;;;;0.10;0.10;;;15.90;84.10;;;;;;5037440;28;20044;-76
2021/07/13 09:59:33;;;;;;;1.20;0.15;;;15.70;83.20;;;;;;5037151;28;20063;-76
2021/07/13 10:02:02;;;;;;;0.20;0.20;;;15.60;82.80;;;;;;5036774;28;20072;-76
2021/07/13 10:04:29;;;;;;;0.22;0.20;;;15.60;83.50;;;;;;5036155;28;20025;-75
2021/07/13 10:06:58;;;;;;;0.30;0.30;;;15.50;82.90;;;;;;5036720;28;20428;-76
2021/07/13 10:09:29;;;;;;;0.03;0.03;;;15.50;85.00;;;;;;5036573;28;20025;-76
2021/07/13 10:11:56;;;;;;;0.15;0.00;;;15.50;83.30;;;;;;5036548;28;20026;-76
2021/07/13 10:14:22;;;;;;;0.63;0.10;;;15.60;84.20;;;;;;5036397;28;20091;-76
2021/07/13 10:16:49;;;;;;;1.00;0.13;;;15.60;84.50;;;;;;5036458;28;20094;-76
2021/07/13 10:19:14;;;;;;;0.43;0.10;;;15.60;83.40;;;;;;5035713;28;20021;-76
2021/07/13 10:21:42;;;;;;;0.20;0.10;;;15.80;83.90;;;;;;5036380;28;20039;-77
2021/07/13 10:24:08;;;;;;;0.40;0.20;;;15.70;82.40;;;;;;5036693;28;20090;-77
2021/07/13 10:26:50;;;;;;;0.38;0.10;;;15.90;83.20;;;;;;5036174;28;20033;-77
2021/07/13 10:29:34;;;;;;;0.10;0.10;;;16.10;82.50;;;;;;5037167;28;20025;-77
2021/07/13 10:32:00;;;;;;;0.10;0.10;;;16.40;81.00;;;;;;5036902;28;20078;-77
2021/07/13 10:34:48;;;;;;;0.98;0.10;;;16.70;80.60;;;;;;5036725;28;20532;-77
2021/07/13 10:37:45;;;;;;;0.68;0.10;;;16.90;80.90;;;;;;5036380;28;20115;-79
2021/07/13 10:40:11;;;;;;;0.38;0.10;;;16.90;77.10;;;;;;5036298;28;20032;-77
2021/07/13 10:42:45;;;;;;;0.10;0.10;;;17.20;80.30;;;;;;5036382;28;20025;-78
2021/07/13 10:45:12;;;;;;;0.10;0.10;;;17.40;78.00;;;;;;5036487;28;20029;-78
2021/07/13 10:47:57;;;;;;;0.10;0.05;;;17.50;76.30;;;;;;5036008;28;20477;-78
2021/07/13 10:50:23;;;;;;;0.50;0.20;;;17.60;73.70;;;;;;5035669;28;20623;-77
2021/07/13 10:53:03;;;;;;;0.20;0.10;;;17.60;76.70;;;;;;5035197;28;20102;-79
2021/07/13 10:55:34;;;;;;;1.08;0.20;;;17.40;75.90;;;;;;5035869;28;20025;-79
2021/07/13 10:58:18;;;;;;;1.45;0.20;;;17.80;76.10;;;;;;5035658;28;20066;-78
2021/07/13 11:00:59;;;;;;;0.20;0.10;;;18.10;74.00;;;;;;5035203;28;20048;-78
2021/07/13 11:03:30;;;;;;;0.20;0.15;;;18.20;72.40;;;;;;5035711;28;20025;-79
2021/07/13 11:05:58;;;;;;;0.10;0.10;;;18.20;74.30;;;;;;5036042;28;20025;-79
2021/07/13 11:08:43;;;;;;;0.47;0.20;;;17.80;75.40;;;;;;5035552;28;20028;-78
2021/07/13 11:11:18;;;;;;;0.77;0.05;;;17.50;76.20;;;;;;5035523;28;20199;-80
2021/07/13 11:14:05;;;;;;;1.55;0.20;;;17.30;76.50;;;;;;5035721;28;20029;-75
2021/07/13 11:16:34;;;;;;;1.48;0.20;;;17.40;76.30;;;;;;5052063;28;20576;-76
2021/07/13 11:19:03;;;;;;;0.20;0.10;;;17.20;78.20;;;;;;5053716;28;20075;-76
2021/07/13 11:21:37;;;;;;;0.77;0.40;;;17.30;76.80;;;;;;5035557;28;20139;-76
2021/07/13 11:24:08;;;;;;;0.43;0.13;;;17.30;77.50;;;;;;5053843;28;20489;-77
2021/07/13 11:26:37;;;;;;;0.45;0.20;;;17.30;75.90;;;;;;5035753;28;20117;-76
2021/07/13 11:29:35;;;;;;;1.60;0.20;;;17.20;76.80;;;;;;5035587;28;20029;-76
2021/07/13 11:32:04;;;;;;;0.30;0.20;;;17.20;78.20;;;;;;4981656;28;20064;-76
2021/07/13 11:34:33;;;;;;;1.70;0.30;;;17.40;76.80;;;;;;5035276;28;20036;-76
2021/07/13 11:36:59;;;;;;;0.52;0.30;;;17.50;76.10;;;;;;5035270;28;20072;-76
2021/07/13 11:39:35;;;;;;;0.65;0.30;;;17.50;78.10;;;;;;5034999;28;20051;-76
2021/07/13 11:42:07;;;;;;;2.20;0.43;;;17.30;76.50;;;;;;5052083;28;20025;-77
2021/07/13 11:44:36;;;;;;;2.33;0.30;;;17.20;76.10;;;;;;5035340;28;20025;-76
2021/07/13 11:47:04;;;;;;;0.60;0.25;;;17.20;77.20;;;;;;5034917;28;20456;-76
2021/07/13 11:49:34;;;;;;;0.43;0.20;;;17.30;78.10;;;;;;5035302;28;20032;-76
2021/07/13 11:52:01;;;;;;;0.47;0.30;;;17.50;75.70;;;;;;5035320;28;20033;-76
2021/07/13 11:54:35;;;;;;;0.95;0.40;;;17.40;74.30;;;;;;5035171;28;20028;-77
2021/07/13 11:57:03;;;;;;;0.20;0.20;;;17.50;75.70;;;;;;5034924;28;20032;-77
2021/07/13 11:59:31;;;;;;;0.75;0.40;;;17.70;76.00;;;;;;5035140;28;20028;-76
2021/07/13 12:02:02;;;;;;;0.77;0.45;;;18.00;74.80;;;;;;5031457;28;20057;-77
2021/07/13 12:04:30;;;;;;;0.50;0.30;;;18.10;76.40;;;;;;5015348;28;20018;-77
2021/07/13 12:06:58;;;;;;;1.02;0.50;;;18.30;71.90;;;;;;5015306;28;20076;-76
2021/07/13 12:09:27;;;;;;;1.58;0.60;;;18.00;73.00;;;;;;5015097;28;20025;-77
2021/07/13 12:12:14;;;;;;;0.30;0.30;;;17.80;73.40;;;;;;5031402;28;20025;-77
2021/07/13 12:14:43;;;;;;;1.08;0.47;;;17.50;73.10;;;;;;5030909;28;20033;-76
2021/07/13 12:17:11;;;;;;;1.95;0.40;;;17.40;73.80;;;;;;5015273;28;20037;-76
2021/07/13 12:19:38;;;;;;;1.13;0.65;;;17.30;74.90;;;;;;5031291;28;20028;-77
2021/07/13 12:22:10;;;;;;;1.23;0.60;;;17.10;74.90;;;;;;5014761;28;20029;-76
2021/07/13 12:24:46;;;;;;;0.80;0.50;;;16.90;74.80;;;;;;5015016;28;20025;-76
2021/07/13 12:27:14;;;;;;;0.77;0.38;;;16.80;74.40;;;;;;5014932;28;20052;-75
2021/07/13 12:29:44;;;;;;;1.95;0.50;;;16.70;75.00;;;;;;4998801;28;20033;-77
2021/07/13 12:32:20;;;;;;;0.65;0.40;;;16.70;74.80;;;;;;5031352;28;20364;-76
2021/07/13 12:34:49;;;;;;;2.50;0.63;;;16.70;75.80;;;;;;5031263;28;20474;-76
2021/07/13 12:37:31;;;;;;;0.85;0.43;;;16.70;74.60;;;;;;5014522;28;20091;-76
2021/07/13 12:40:00;;;;;;;0.93;0.68;;;16.70;76.00;;;;;;5014934;28;20030;-76
2021/07/13 12:42:34;;;;;;;0.80;0.50;;;16.80;75.50;;;;;;5048538;28;20032;-76
2021/07/13 12:45:21;;;;;;;0.45;0.30;;;16.70;74.60;;;;;;5018407;28;20021;-76
2021/07/13 12:47:48;;;;;;;0.70;0.40;;;16.80;73.20;;;;;;5034728;28;20057;-77
2021/07/13 12:50:19;;;;;;;0.75;0.50;;;16.80;73.30;;;;;;5018190;28;20048;-76
2021/07/13 12:52:57;;;;;;;1.02;0.47;;;17.00;74.20;;;;;;5034832;28;20027;-76
2021/07/13 12:55:48;;;;;;;0.98;0.60;;;16.90;73.70;;;;;;5034699;28;20095;-77